sensor_id;sensor_type;location;lat;lon;timestamp;P1;durP1;ratioP1;P2;durP2;ratioP2
11911;SDS011;6016;41.928;25.556;2023-04-26T00:02:25;1.95;;;1.58;;
11911;SDS011;6016;41.928;25.556;2023-04-26T00:04:53;2.60;;;1.70;;
11911;SDS011;6016;41.928;25.556;2023-04-26T00:07:22;3.42;;;1.70;;
11911;SDS011;6016;41.928;25.556;2023-04-26T00:09:51;2.63;;;1.40;;
11911;SDS011;6016;41.928;25.556;2023-04-26T00:12:18;1.85;;;1.30;;
11911;SDS011;6016;41.928;25.556;2023-04-26T00:14:46;2.00;;;1.50;;
11911;SDS011;6016;41.928;25.556;2023-04-26T00:17:12;1.35;;;1.20;;
11911;SDS011;6016;41.928;25.556;2023-04-26T00:19:40;1.40;;;1.00;;
11911;SDS011;6016;41.928;25.556;2023-04-26T00:22:07;3.40;;;1.45;;
11911;SDS011;6016;41.928;25.556;2023-04-26T00:24:34;2.72;;;1.50;;
11911;SDS011;6016;41.928;25.556;2023-04-26T00:27:02;2.45;;;1.40;;
11911;SDS011;6016;41.928;25.556;2023-04-26T00:29:33;1.55;;;1.30;;
11911;SDS011;6016;41.928;25.556;2023-04-26T00:32:00;4.35;;;1.50;;
11911;SDS011;6016;41.928;25.556;2023-04-26T00:34:30;1.52;;;1.40;;
11911;SDS011;6016;41.928;25.556;2023-04-26T00:36:58;3.17;;;1.50;;
11911;SDS011;6016;41.928;25.556;2023-04-26T00:39:25;2.03;;;1.40;;
11911;SDS011;6016;41.928;25.556;2023-04-26T00:41:51;2.03;;;1.52;;
11911;SDS011;6016;41.928;25.556;2023-04-26T00:44:20;2.20;;;1.30;;
11911;SDS011;6016;41.928;25.556;2023-04-26T00:46:47;2.17;;;1.50;;
11911;SDS011;6016;41.928;25.556;2023-04-26T00:49:15;1.65;;;1.33;;
11911;SDS011;6016;41.928;25.556;2023-04-26T00:51:42;3.10;;;1.50;;
11911;SDS011;6016;41.928;25.556;2023-04-26T00:54:10;2.08;;;1.30;;
11911;SDS011;6016;41.928;25.556;2023-04-26T00:56:37;2.60;;;1.20;;
11911;SDS011;6016;41.928;25.556;2023-04-26T00:59:05;3.08;;;1.38;;
11911;SDS011;6016;41.928;25.556;2023-04-26T01:01:33;3.03;;;1.33;;
11911;SDS011;6016;41.928;25.556;2023-04-26T01:04:00;2.05;;;1.23;;
11911;SDS011;6016;41.928;25.556;2023-04-26T01:06:27;1.42;;;1.20;;
11911;SDS011;6016;41.928;25.556;2023-04-26T01:08:59;1.77;;;1.40;;
11911;SDS011;6016;41.928;25.556;2023-04-26T01:11:28;1.50;;;1.30;;
11911;SDS011;6016;41.928;25.556;2023-04-26T01:13:56;2.67;;;1.50;;
11911;SDS011;6016;41.928;25.556;2023-04-26T01:16:23;1.50;;;1.30;;
11911;SDS011;6016;41.928;25.556;2023-04-26T01:18:52;1.45;;;1.25;;
11911;SDS011;6016;41.928;25.556;2023-04-26T01:21:19;1.25;;;1.15;;
11911;SDS011;6016;41.928;25.556;2023-04-26T01:23:48;7.63;;;1.50;;
11911;SDS011;6016;41.928;25.556;2023-04-26T01:26:15;1.58;;;1.10;;
11911;SDS011;6016;41.928;25.556;2023-04-26T01:28:42;1.55;;;1.20;;
11911;SDS011;6016;41.928;25.556;2023-04-26T01:31:10;1.73;;;1.20;;
11911;SDS011;6016;41.928;25.556;2023-04-26T01:33:37;1.88;;;1.20;;
11911;SDS011;6016;41.928;25.556;2023-04-26T01:36:06;1.35;;;1.00;;
11911;SDS011;6016;41.928;25.556;2023-04-26T01:38:34;4.10;;;1.45;;
11911;SDS011;6016;41.928;25.556;2023-04-26T01:41:02;2.35;;;1.33;;
11911;SDS011;6016;41.928;25.556;2023-04-26T01:43:29;1.50;;;1.40;;
11911;SDS011;6016;41.928;25.556;2023-04-26T01:45:56;1.30;;;1.13;;
11911;SDS011;6016;41.928;25.556;2023-04-26T01:48:22;1.30;;;1.20;;
11911;SDS011;6016;41.928;25.556;2023-04-26T01:50:49;1.50;;;1.17;;
11911;SDS011;6016;41.928;25.556;2023-04-26T01:53:16;1.98;;;1.30;;
11911;SDS011;6016;41.928;25.556;2023-04-26T01:55:43;1.50;;;1.20;;
11911;SDS011;6016;41.928;25.556;2023-04-26T01:58:11;1.77;;;1.23;;
11911;SDS011;6016;41.928;25.556;2023-04-26T02:00:38;1.90;;;1.30;;
11911;SDS011;6016;41.928;25.556;2023-04-26T02:03:05;1.45;;;1.30;;
11911;SDS011;6016;41.928;25.556;2023-04-26T02:05:32;1.92;;;1.30;;
11911;SDS011;6016;41.928;25.556;2023-04-26T02:07:59;1.40;;;1.30;;
11911;SDS011;6016;41.928;25.556;2023-04-26T02:10:26;2.47;;;1.73;;
11911;SDS011;6016;41.928;25.556;2023-04-26T02:12:53;2.15;;;1.60;;
11911;SDS011;6016;41.928;25.556;2023-04-26T02:15:21;2.55;;;1.02;;
11911;SDS011;6016;41.928;25.556;2023-04-26T02:17:47;1.73;;;1.13;;
11911;SDS011;6016;41.928;25.556;2023-04-26T02:20:14;1.38;;;1.27;;
11911;SDS011;6016;41.928;25.556;2023-04-26T02:22:41;1.63;;;1.20;;
11911;SDS011;6016;41.928;25.556;2023-04-26T02:25:08;2.80;;;2.15;;
11911;SDS011;6016;41.928;25.556;2023-04-26T02:27:36;2.28;;;1.40;;
11911;SDS011;6016;41.928;25.556;2023-04-26T02:30:03;2.10;;;1.50;;
11911;SDS011;6016;41.928;25.556;2023-04-26T02:32:32;2.78;;;1.48;;
11911;SDS011;6016;41.928;25.556;2023-04-26T02:34:58;1.48;;;1.38;;
11911;SDS011;6016;41.928;25.556;2023-04-26T02:37:25;2.88;;;1.48;;
11911;SDS011;6016;41.928;25.556;2023-04-26T02:39:52;2.65;;;1.73;;
11911;SDS011;6016;41.928;25.556;2023-04-26T02:42:20;1.90;;;1.60;;
11911;SDS011;6016;41.928;25.556;2023-04-26T02:44:46;3.70;;;1.60;;
11911;SDS011;6016;41.928;25.556;2023-04-26T02:47:14;2.92;;;1.80;;
11911;SDS011;6016;41.928;25.556;2023-04-26T02:49:42;2.25;;;1.80;;
11911;SDS011;6016;41.928;25.556;2023-04-26T02:52:09;2.17;;;1.60;;
11911;SDS011;6016;41.928;25.556;2023-04-26T02:54:36;2.40;;;1.80;;
11911;SDS011;6016;41.928;25.556;2023-04-26T02:57:02;2.35;;;1.50;;
11911;SDS011;6016;41.928;25.556;2023-04-26T02:59:29;2.78;;;1.60;;
11911;SDS011;6016;41.928;25.556;2023-04-26T03:01:56;3.50;;;1.40;;
11911;SDS011;6016;41.928;25.556;2023-04-26T03:04:23;3.65;;;1.95;;
11911;SDS011;6016;41.928;25.556;2023-04-26T03:06:51;4.32;;;2.03;;
11911;SDS011;6016;41.928;25.556;2023-04-26T03:09:18;6.10;;;2.67;;
11911;SDS011;6016;41.928;25.556;2023-04-26T03:11:45;6.15;;;2.22;;
11911;SDS011;6016;41.928;25.556;2023-04-26T03:14:12;4.30;;;2.72;;
11911;SDS011;6016;41.928;25.556;2023-04-26T03:16:39;4.75;;;2.25;;
11911;SDS011;6016;41.928;25.556;2023-04-26T03:19:07;4.05;;;2.20;;
11911;SDS011;6016;41.928;25.556;2023-04-26T03:21:34;3.63;;;2.10;;
11911;SDS011;6016;41.928;25.556;2023-04-26T03:24:03;3.22;;;2.30;;
11911;SDS011;6016;41.928;25.556;2023-04-26T03:26:30;3.55;;;2.35;;
11911;SDS011;6016;41.928;25.556;2023-04-26T03:28:56;3.63;;;2.50;;
11911;SDS011;6016;41.928;25.556;2023-04-26T03:31:23;5.30;;;2.92;;
11911;SDS011;6016;41.928;25.556;2023-04-26T03:33:50;4.07;;;2.70;;
11911;SDS011;6016;41.928;25.556;2023-04-26T03:36:17;3.90;;;2.63;;
11911;SDS011;6016;41.928;25.556;2023-04-26T03:38:44;3.38;;;2.50;;
11911;SDS011;6016;41.928;25.556;2023-04-26T03:41:12;6.13;;;2.90;;
11911;SDS011;6016;41.928;25.556;2023-04-26T03:43:39;5.82;;;3.13;;
11911;SDS011;6016;41.928;25.556;2023-04-26T03:46:06;4.78;;;3.22;;
11911;SDS011;6016;41.928;25.556;2023-04-26T03:48:33;7.65;;;4.28;;
11911;SDS011;6016;41.928;25.556;2023-04-26T03:51:00;5.47;;;3.20;;
11911;SDS011;6016;41.928;25.556;2023-04-26T03:53:27;6.22;;;3.92;;
11911;SDS011;6016;41.928;25.556;2023-04-26T03:55:54;6.60;;;4.20;;
11911;SDS011;6016;41.928;25.556;2023-04-26T03:58:23;6.70;;;4.35;;
11911;SDS011;6016;41.928;25.556;2023-04-26T04:00:50;8.02;;;4.45;;
11911;SDS011;6016;41.928;25.556;2023-04-26T04:03:17;7.15;;;4.93;;
11911;SDS011;6016;41.928;25.556;2023-04-26T04:05:45;10.57;;;6.25;;
11911;SDS011;6016;41.928;25.556;2023-04-26T04:08:12;11.45;;;5.78;;
11911;SDS011;6016;41.928;25.556;2023-04-26T04:10:39;7.18;;;4.38;;
11911;SDS011;6016;41.928;25.556;2023-04-26T04:13:06;7.07;;;4.60;;
11911;SDS011;6016;41.928;25.556;2023-04-26T04:15:35;8.73;;;4.70;;
11911;SDS011;6016;41.928;25.556;2023-04-26T04:18:02;7.57;;;4.35;;
11911;SDS011;6016;41.928;25.556;2023-04-26T04:20:29;4.95;;;2.95;;
11911;SDS011;6016;41.928;25.556;2023-04-26T04:22:55;5.95;;;2.58;;
11911;SDS011;6016;41.928;25.556;2023-04-26T04:25:23;4.78;;;3.03;;
11911;SDS011;6016;41.928;25.556;2023-04-26T04:27:50;4.57;;;2.97;;
11911;SDS011;6016;41.928;25.556;2023-04-26T04:30:17;4.13;;;3.00;;
11911;SDS011;6016;41.928;25.556;2023-04-26T04:32:45;4.75;;;3.60;;
11911;SDS011;6016;41.928;25.556;2023-04-26T04:35:12;8.57;;;4.47;;
11911;SDS011;6016;41.928;25.556;2023-04-26T04:37:39;12.00;;;5.88;;
11911;SDS011;6016;41.928;25.556;2023-04-26T04:40:08;25.63;;;11.73;;
11911;SDS011;6016;41.928;25.556;2023-04-26T04:42:36;20.98;;;9.77;;
11911;SDS011;6016;41.928;25.556;2023-04-26T04:45:03;14.05;;;6.85;;
11911;SDS011;6016;41.928;25.556;2023-04-26T04:47:31;11.13;;;6.40;;
11911;SDS011;6016;41.928;25.556;2023-04-26T04:49:59;9.95;;;5.20;;
11911;SDS011;6016;41.928;25.556;2023-04-26T04:52:26;10.40;;;5.45;;
11911;SDS011;6016;41.928;25.556;2023-04-26T04:54:53;8.77;;;3.80;;
11911;SDS011;6016;41.928;25.556;2023-04-26T04:57:20;7.45;;;4.47;;
11911;SDS011;6016;41.928;25.556;2023-04-26T04:59:46;7.88;;;4.65;;
11911;SDS011;6016;41.928;25.556;2023-04-26T05:02:13;6.22;;;3.55;;
11911;SDS011;6016;41.928;25.556;2023-04-26T05:04:40;9.55;;;3.80;;
11911;SDS011;6016;41.928;25.556;2023-04-26T05:07:08;6.18;;;3.90;;
11911;SDS011;6016;41.928;25.556;2023-04-26T05:09:36;5.25;;;3.25;;
11911;SDS011;6016;41.928;25.556;2023-04-26T05:12:03;8.43;;;2.72;;
11911;SDS011;6016;41.928;25.556;2023-04-26T05:14:30;3.60;;;2.80;;
11911;SDS011;6016;41.928;25.556;2023-04-26T05:16:57;6.20;;;3.65;;
11911;SDS011;6016;41.928;25.556;2023-04-26T05:19:24;4.88;;;3.33;;
11911;SDS011;6016;41.928;25.556;2023-04-26T05:21:51;5.80;;;3.70;;
11911;SDS011;6016;41.928;25.556;2023-04-26T05:24:19;6.38;;;3.45;;
11911;SDS011;6016;41.928;25.556;2023-04-26T05:26:46;5.85;;;3.35;;
11911;SDS011;6016;41.928;25.556;2023-04-26T05:29:13;4.00;;;3.00;;
11911;SDS011;6016;41.928;25.556;2023-04-26T05:31:40;3.53;;;2.78;;
11911;SDS011;6016;41.928;25.556;2023-04-26T05:34:07;6.07;;;3.70;;
11911;SDS011;6016;41.928;25.556;2023-04-26T05:36:34;6.65;;;4.28;;
11911;SDS011;6016;41.928;25.556;2023-04-26T05:39:01;9.52;;;4.28;;
11911;SDS011;6016;41.928;25.556;2023-04-26T05:41:29;9.60;;;4.78;;
11911;SDS011;6016;41.928;25.556;2023-04-26T05:43:56;8.35;;;4.43;;
11911;SDS011;6016;41.928;25.556;2023-04-26T05:46:23;8.05;;;4.38;;
11911;SDS011;6016;41.928;25.556;2023-04-26T05:48:50;6.68;;;4.07;;
11911;SDS011;6016;41.928;25.556;2023-04-26T05:51:17;6.10;;;3.75;;
11911;SDS011;6016;41.928;25.556;2023-04-26T05:53:44;4.93;;;2.47;;
11911;SDS011;6016;41.928;25.556;2023-04-26T05:56:10;4.85;;;2.47;;
11911;SDS011;6016;41.928;25.556;2023-04-26T05:58:39;3.35;;;1.80;;
11911;SDS011;6016;41.928;25.556;2023-04-26T06:01:05;1.75;;;1.45;;
11911;SDS011;6016;41.928;25.556;2023-04-26T06:03:32;2.88;;;2.20;;
11911;SDS011;6016;41.928;25.556;2023-04-26T06:05:59;2.50;;;2.05;;
11911;SDS011;6016;41.928;25.556;2023-04-26T06:08:26;4.10;;;2.35;;
11911;SDS011;6016;41.928;25.556;2023-04-26T06:10:53;3.42;;;2.10;;
11911;SDS011;6016;41.928;25.556;2023-04-26T06:13:20;3.17;;;2.10;;
11911;SDS011;6016;41.928;25.556;2023-04-26T06:15:48;7.75;;;4.05;;
11911;SDS011;6016;41.928;25.556;2023-04-26T06:18:15;4.10;;;3.05;;
11911;SDS011;6016;41.928;25.556;2023-04-26T06:20:42;3.20;;;2.30;;
11911;SDS011;6016;41.928;25.556;2023-04-26T06:23:09;2.10;;;1.60;;
11911;SDS011;6016;41.928;25.556;2023-04-26T06:25:35;3.88;;;2.05;;
11911;SDS011;6016;41.928;25.556;2023-04-26T06:28:04;3.15;;;1.80;;
11911;SDS011;6016;41.928;25.556;2023-04-26T06:30:31;2.80;;;2.05;;
11911;SDS011;6016;41.928;25.556;2023-04-26T06:32:59;2.47;;;1.75;;
11911;SDS011;6016;41.928;25.556;2023-04-26T06:35:26;3.53;;;2.45;;
11911;SDS011;6016;41.928;25.556;2023-04-26T06:37:53;4.13;;;2.10;;
11911;SDS011;6016;41.928;25.556;2023-04-26T06:40:20;4.28;;;2.90;;
11911;SDS011;6016;41.928;25.556;2023-04-26T06:42:47;3.28;;;2.70;;
11911;SDS011;6016;41.928;25.556;2023-04-26T06:45:13;4.18;;;2.63;;
11911;SDS011;6016;41.928;25.556;2023-04-26T06:47:41;4.68;;;2.45;;
11911;SDS011;6016;41.928;25.556;2023-04-26T06:50:09;3.35;;;2.45;;
11911;SDS011;6016;41.928;25.556;2023-04-26T06:52:37;3.20;;;2.22;;
11911;SDS011;6016;41.928;25.556;2023-04-26T06:55:04;3.42;;;2.67;;
11911;SDS011;6016;41.928;25.556;2023-04-26T06:57:31;3.30;;;2.47;;
11911;SDS011;6016;41.928;25.556;2023-04-26T06:59:58;3.75;;;2.13;;
11911;SDS011;6016;41.928;25.556;2023-04-26T07:02:25;3.28;;;2.53;;
11911;SDS011;6016;41.928;25.556;2023-04-26T07:04:52;2.75;;;2.25;;
11911;SDS011;6016;41.928;25.556;2023-04-26T07:07:20;3.38;;;2.70;;
11911;SDS011;6016;41.928;25.556;2023-04-26T07:09:47;3.30;;;2.20;;
11911;SDS011;6016;41.928;25.556;2023-04-26T07:12:14;2.78;;;2.22;;
11911;SDS011;6016;41.928;25.556;2023-04-26T07:14:41;3.30;;;2.70;;
11911;SDS011;6016;41.928;25.556;2023-04-26T07:17:07;5.88;;;3.13;;
11911;SDS011;6016;41.928;25.556;2023-04-26T07:19:34;4.00;;;2.80;;
11911;SDS011;6016;41.928;25.556;2023-04-26T07:22:01;3.97;;;2.78;;
11911;SDS011;6016;41.928;25.556;2023-04-26T07:24:30;3.33;;;2.83;;
11911;SDS011;6016;41.928;25.556;2023-04-26T07:26:57;4.90;;;3.05;;
11911;SDS011;6016;41.928;25.556;2023-04-26T07:29:25;5.38;;;3.22;;
11911;SDS011;6016;41.928;25.556;2023-04-26T07:31:52;5.82;;;3.20;;
11911;SDS011;6016;41.928;25.556;2023-04-26T07:34:18;4.88;;;3.10;;
11911;SDS011;6016;41.928;25.556;2023-04-26T07:36:45;3.65;;;2.65;;
11911;SDS011;6016;41.928;25.556;2023-04-26T07:39:12;3.63;;;2.80;;
11911;SDS011;6016;41.928;25.556;2023-04-26T07:41:41;6.03;;;2.88;;
11911;SDS011;6016;41.928;25.556;2023-04-26T07:44:08;3.47;;;2.95;;
11911;SDS011;6016;41.928;25.556;2023-04-26T07:46:35;5.15;;;3.28;;
11911;SDS011;6016;41.928;25.556;2023-04-26T07:49:02;5.38;;;3.08;;
11911;SDS011;6016;41.928;25.556;2023-04-26T07:51:29;7.90;;;3.17;;
11911;SDS011;6016;41.928;25.556;2023-04-26T07:53:56;4.22;;;3.13;;
11911;SDS011;6016;41.928;25.556;2023-04-26T07:56:22;3.42;;;2.65;;
11911;SDS011;6016;41.928;25.556;2023-04-26T07:58:51;4.85;;;2.97;;
11911;SDS011;6016;41.928;25.556;2023-04-26T08:01:18;3.53;;;2.70;;
11911;SDS011;6016;41.928;25.556;2023-04-26T08:03:44;3.58;;;2.75;;
11911;SDS011;6016;41.928;25.556;2023-04-26T08:06:12;3.40;;;2.63;;
11911;SDS011;6016;41.928;25.556;2023-04-26T08:08:39;3.42;;;2.65;;
11911;SDS011;6016;41.928;25.556;2023-04-26T08:11:09;3.47;;;2.58;;
11911;SDS011;6016;41.928;25.556;2023-04-26T08:13:36;3.17;;;2.58;;
11911;SDS011;6016;41.928;25.556;2023-04-26T08:16:04;4.85;;;2.70;;
11911;SDS011;6016;41.928;25.556;2023-04-26T08:18:31;4.18;;;2.60;;
11911;SDS011;6016;41.928;25.556;2023-04-26T08:20:58;5.22;;;2.70;;
11911;SDS011;6016;41.928;25.556;2023-04-26T08:23:25;4.10;;;2.80;;
11911;SDS011;6016;41.928;25.556;2023-04-26T08:25:52;5.75;;;2.85;;
11911;SDS011;6016;41.928;25.556;2023-04-26T08:28:19;4.05;;;2.72;;
11911;SDS011;6016;41.928;25.556;2023-04-26T08:30:46;6.53;;;2.88;;
11911;SDS011;6016;41.928;25.556;2023-04-26T08:33:14;3.17;;;2.60;;
11911;SDS011;6016;41.928;25.556;2023-04-26T08:35:43;3.45;;;2.30;;
11911;SDS011;6016;41.928;25.556;2023-04-26T08:38:10;3.10;;;2.50;;
11911;SDS011;6016;41.928;25.556;2023-04-26T08:40:36;4.40;;;2.85;;
11911;SDS011;6016;41.928;25.556;2023-04-26T08:43:03;3.42;;;2.95;;
11911;SDS011;6016;41.928;25.556;2023-04-26T08:45:30;5.78;;;3.10;;
11911;SDS011;6016;41.928;25.556;2023-04-26T08:48:01;4.53;;;3.33;;
11911;SDS011;6016;41.928;25.556;2023-04-26T08:53:01;3.95;;;3.20;;
11911;SDS011;6016;41.928;25.556;2023-04-26T08:55:28;4.07;;;3.33;;
11911;SDS011;6016;41.928;25.556;2023-04-26T08:57:55;6.38;;;4.07;;
11911;SDS011;6016;41.928;25.556;2023-04-26T09:00:23;5.68;;;3.70;;
11911;SDS011;6016;41.928;25.556;2023-04-26T09:02:51;3.45;;;3.15;;
11911;SDS011;6016;41.928;25.556;2023-04-26T09:05:18;3.35;;;3.03;;
11911;SDS011;6016;41.928;25.556;2023-04-26T09:07:49;4.55;;;2.50;;
11911;SDS011;6016;41.928;25.556;2023-04-26T09:10:19;3.47;;;2.80;;
11911;SDS011;6016;41.928;25.556;2023-04-26T09:12:49;3.10;;;2.63;;
11911;SDS011;6016;41.928;25.556;2023-04-26T09:15:17;5.10;;;3.22;;
11911;SDS011;6016;41.928;25.556;2023-04-26T09:17:46;3.22;;;2.92;;
11911;SDS011;6016;41.928;25.556;2023-04-26T09:20:17;4.68;;;2.88;;
11911;SDS011;6016;41.928;25.556;2023-04-26T09:22:46;4.05;;;2.92;;
11911;SDS011;6016;41.928;25.556;2023-04-26T09:25:15;3.50;;;3.08;;
11911;SDS011;6016;41.928;25.556;2023-04-26T09:27:44;2.70;;;2.50;;
11911;SDS011;6016;41.928;25.556;2023-04-26T09:30:12;4.45;;;2.63;;
11911;SDS011;6016;41.928;25.556;2023-04-26T09:32:48;4.18;;;3.08;;
11911;SDS011;6016;41.928;25.556;2023-04-26T09:35:19;2.75;;;2.50;;
11911;SDS011;6016;41.928;25.556;2023-04-26T09:37:51;3.88;;;2.10;;
11911;SDS011;6016;41.928;25.556;2023-04-26T09:40:20;2.60;;;2.35;;
11911;SDS011;6016;41.928;25.556;2023-04-26T09:42:55;3.70;;;2.20;;
11911;SDS011;6016;41.928;25.556;2023-04-26T09:45:25;3.35;;;2.53;;
11911;SDS011;6016;41.928;25.556;2023-04-26T09:47:53;3.22;;;2.30;;
11911;SDS011;6016;41.928;25.556;2023-04-26T09:50:27;3.22;;;2.88;;
11911;SDS011;6016;41.928;25.556;2023-04-26T09:52:55;4.50;;;2.55;;
11911;SDS011;6016;41.928;25.556;2023-04-26T09:55:26;4.53;;;2.60;;
11911;SDS011;6016;41.928;25.556;2023-04-26T09:57:54;6.35;;;3.10;;
11911;SDS011;6016;41.928;25.556;2023-04-26T10:00:23;3.03;;;2.72;;
11911;SDS011;6016;41.928;25.556;2023-04-26T10:02:51;2.70;;;2.50;;
11911;SDS011;6016;41.928;25.556;2023-04-26T10:05:19;5.35;;;2.65;;
11911;SDS011;6016;41.928;25.556;2023-04-26T10:07:46;3.47;;;2.72;;
11911;SDS011;6016;41.928;25.556;2023-04-26T10:10:13;2.55;;;2.35;;
11911;SDS011;6016;41.928;25.556;2023-04-26T10:12:41;3.90;;;2.50;;
11911;SDS011;6016;41.928;25.556;2023-04-26T10:15:10;3.40;;;2.67;;
11911;SDS011;6016;41.928;25.556;2023-04-26T10:17:38;3.28;;;2.42;;
11911;SDS011;6016;41.928;25.556;2023-04-26T10:20:07;2.88;;;2.50;;
11911;SDS011;6016;41.928;25.556;2023-04-26T10:22:39;3.17;;;2.80;;
11911;SDS011;6016;41.928;25.556;2023-04-26T10:25:10;4.93;;;2.92;;
11911;SDS011;6016;41.928;25.556;2023-04-26T10:27:51;6.93;;;2.85;;
11911;SDS011;6016;41.928;25.556;2023-04-26T10:30:19;5.00;;;2.65;;
11911;SDS011;6016;41.928;25.556;2023-04-26T10:36:06;3.15;;;2.50;;
11911;SDS011;6016;41.928;25.556;2023-04-26T10:38:35;5.13;;;2.70;;
11911;SDS011;6016;41.928;25.556;2023-04-26T10:43:54;3.85;;;2.70;;
11911;SDS011;6016;41.928;25.556;2023-04-26T10:46:34;3.45;;;2.97;;
11911;SDS011;6016;41.928;25.556;2023-04-26T10:52:09;3.55;;;2.60;;
11911;SDS011;6016;41.928;25.556;2023-04-26T11:00:26;3.50;;;2.67;;
11911;SDS011;6016;41.928;25.556;2023-04-26T11:03:05;6.63;;;2.72;;
11911;SDS011;6016;41.928;25.556;2023-04-26T11:05:37;4.30;;;2.75;;
11911;SDS011;6016;41.928;25.556;2023-04-26T11:08:07;3.05;;;2.75;;
11911;SDS011;6016;41.928;25.556;2023-04-26T11:10:41;4.30;;;3.00;;
11911;SDS011;6016;41.928;25.556;2023-04-26T11:13:08;4.43;;;3.20;;
11911;SDS011;6016;41.928;25.556;2023-04-26T11:15:36;4.85;;;3.55;;
11911;SDS011;6016;41.928;25.556;2023-04-26T11:18:03;3.63;;;2.83;;
11911;SDS011;6016;41.928;25.556;2023-04-26T11:20:30;8.25;;;3.28;;
11911;SDS011;6016;41.928;25.556;2023-04-26T11:22:58;3.22;;;2.78;;
11911;SDS011;6016;41.928;25.556;2023-04-26T11:25:25;4.95;;;3.17;;
11911;SDS011;6016;41.928;25.556;2023-04-26T11:27:57;7.32;;;3.58;;
11911;SDS011;6016;41.928;25.556;2023-04-26T11:30:26;6.18;;;2.83;;
11911;SDS011;6016;41.928;25.556;2023-04-26T11:32:55;5.43;;;3.15;;
11911;SDS011;6016;41.928;25.556;2023-04-26T11:35:22;2.90;;;2.40;;
11911;SDS011;6016;41.928;25.556;2023-04-26T11:37:50;3.08;;;2.53;;
11911;SDS011;6016;41.928;25.556;2023-04-26T11:40:17;5.30;;;3.10;;
11911;SDS011;6016;41.928;25.556;2023-04-26T11:42:44;4.35;;;2.40;;
11911;SDS011;6016;41.928;25.556;2023-04-26T11:45:14;3.92;;;2.42;;
11911;SDS011;6016;41.928;25.556;2023-04-26T11:47:41;4.20;;;2.40;;
11911;SDS011;6016;41.928;25.556;2023-04-26T11:50:10;4.57;;;2.35;;
11911;SDS011;6016;41.928;25.556;2023-04-26T11:52:38;5.60;;;2.65;;
11911;SDS011;6016;41.928;25.556;2023-04-26T11:55:07;3.22;;;2.30;;
11911;SDS011;6016;41.928;25.556;2023-04-26T11:57:35;4.22;;;2.65;;
11911;SDS011;6016;41.928;25.556;2023-04-26T12:00:11;4.38;;;2.33;;
11911;SDS011;6016;41.928;25.556;2023-04-26T12:02:43;3.35;;;2.15;;
11911;SDS011;6016;41.928;25.556;2023-04-26T12:05:11;2.78;;;2.30;;
11911;SDS011;6016;41.928;25.556;2023-04-26T12:07:48;4.35;;;2.40;;
11911;SDS011;6016;41.928;25.556;2023-04-26T12:10:16;2.67;;;2.20;;
11911;SDS011;6016;41.928;25.556;2023-04-26T12:12:48;2.97;;;2.10;;
11911;SDS011;6016;41.928;25.556;2023-04-26T12:15:16;2.33;;;1.83;;
11911;SDS011;6016;41.928;25.556;2023-04-26T12:17:53;18.13;;;8.77;;
11911;SDS011;6016;41.928;25.556;2023-04-26T12:20:31;5.75;;;3.72;;
11911;SDS011;6016;41.928;25.556;2023-04-26T12:23:00;2.97;;;2.22;;
11911;SDS011;6016;41.928;25.556;2023-04-26T12:25:28;4.40;;;2.08;;
11911;SDS011;6016;41.928;25.556;2023-04-26T12:27:55;5.63;;;1.90;;
11911;SDS011;6016;41.928;25.556;2023-04-26T12:30:24;3.92;;;2.13;;
11911;SDS011;6016;41.928;25.556;2023-04-26T12:32:51;3.80;;;2.10;;
11911;SDS011;6016;41.928;25.556;2023-04-26T12:35:19;3.45;;;2.00;;
11911;SDS011;6016;41.928;25.556;2023-04-26T12:37:47;6.25;;;2.53;;
11911;SDS011;6016;41.928;25.556;2023-04-26T12:40:16;7.38;;;2.95;;
11911;SDS011;6016;41.928;25.556;2023-04-26T12:42:44;9.20;;;2.80;;
11911;SDS011;6016;41.928;25.556;2023-04-26T12:45:12;20.33;;;3.47;;
11911;SDS011;6016;41.928;25.556;2023-04-26T12:47:39;16.38;;;4.13;;
11911;SDS011;6016;41.928;25.556;2023-04-26T12:50:06;10.27;;;3.72;;
11911;SDS011;6016;41.928;25.556;2023-04-26T12:52:35;8.80;;;4.22;;
11911;SDS011;6016;41.928;25.556;2023-04-26T12:55:04;6.95;;;3.58;;
11911;SDS011;6016;41.928;25.556;2023-04-26T12:57:32;6.10;;;3.28;;
11911;SDS011;6016;41.928;25.556;2023-04-26T12:59:59;6.70;;;3.38;;
11911;SDS011;6016;41.928;25.556;2023-04-26T13:02:25;7.10;;;3.80;;
11911;SDS011;6016;41.928;25.556;2023-04-26T13:04:52;6.05;;;3.92;;
11911;SDS011;6016;41.928;25.556;2023-04-26T13:07:19;7.80;;;4.30;;
11911;SDS011;6016;41.928;25.556;2023-04-26T13:09:46;8.43;;;4.72;;
11911;SDS011;6016;41.928;25.556;2023-04-26T13:12:14;8.90;;;5.05;;
11911;SDS011;6016;41.928;25.556;2023-04-26T13:14:41;10.48;;;5.03;;
11911;SDS011;6016;41.928;25.556;2023-04-26T13:17:11;6.45;;;3.45;;
11911;SDS011;6016;41.928;25.556;2023-04-26T13:19:38;6.13;;;3.25;;
11911;SDS011;6016;41.928;25.556;2023-04-26T13:22:05;7.68;;;3.92;;
11911;SDS011;6016;41.928;25.556;2023-04-26T13:24:32;13.13;;;6.65;;
11911;SDS011;6016;41.928;25.556;2023-04-26T13:26:59;7.15;;;4.32;;
11911;SDS011;6016;41.928;25.556;2023-04-26T13:29:28;8.23;;;4.28;;
11911;SDS011;6016;41.928;25.556;2023-04-26T13:31:55;7.35;;;5.15;;
11911;SDS011;6016;41.928;25.556;2023-04-26T13:34:23;4.57;;;3.30;;
11911;SDS011;6016;41.928;25.556;2023-04-26T13:36:50;4.95;;;3.10;;
11911;SDS011;6016;41.928;25.556;2023-04-26T13:39:17;6.10;;;2.78;;
11911;SDS011;6016;41.928;25.556;2023-04-26T13:41:44;5.47;;;2.75;;
11911;SDS011;6016;41.928;25.556;2023-04-26T13:44:11;7.90;;;4.30;;
11911;SDS011;6016;41.928;25.556;2023-04-26T13:46:39;9.70;;;5.15;;
11911;SDS011;6016;41.928;25.556;2023-04-26T13:49:06;11.23;;;5.80;;
11911;SDS011;6016;41.928;25.556;2023-04-26T13:51:34;13.07;;;6.35;;
11911;SDS011;6016;41.928;25.556;2023-04-26T13:54:01;11.65;;;6.13;;
11911;SDS011;6016;41.928;25.556;2023-04-26T13:56:29;9.05;;;4.80;;
11911;SDS011;6016;41.928;25.556;2023-04-26T13:58:57;6.82;;;3.55;;
11911;SDS011;6016;41.928;25.556;2023-04-26T14:01:24;10.77;;;5.20;;
11911;SDS011;6016;41.928;25.556;2023-04-26T14:03:52;5.60;;;3.30;;
11911;SDS011;6016;41.928;25.556;2023-04-26T14:06:19;8.40;;;3.88;;
11911;SDS011;6016;41.928;25.556;2023-04-26T14:08:46;5.40;;;3.47;;
11911;SDS011;6016;41.928;25.556;2023-04-26T14:11:13;5.10;;;3.40;;
11911;SDS011;6016;41.928;25.556;2023-04-26T14:13:40;9.52;;;4.20;;
11911;SDS011;6016;41.928;25.556;2023-04-26T14:16:07;10.15;;;4.30;;
11911;SDS011;6016;41.928;25.556;2023-04-26T14:18:35;6.97;;;4.40;;
11911;SDS011;6016;41.928;25.556;2023-04-26T14:21:05;8.95;;;4.95;;
11911;SDS011;6016;41.928;25.556;2023-04-26T14:23:32;7.70;;;4.75;;
11911;SDS011;6016;41.928;25.556;2023-04-26T14:25:59;12.65;;;6.90;;
11911;SDS011;6016;41.928;25.556;2023-04-26T14:28:25;7.38;;;4.53;;
11911;SDS011;6016;41.928;25.556;2023-04-26T14:30:53;6.72;;;4.05;;
11911;SDS011;6016;41.928;25.556;2023-04-26T14:33:19;6.65;;;4.40;;
11911;SDS011;6016;41.928;25.556;2023-04-26T14:35:47;5.72;;;3.60;;
11911;SDS011;6016;41.928;25.556;2023-04-26T14:38:15;5.95;;;3.53;;
11911;SDS011;6016;41.928;25.556;2023-04-26T14:40:43;6.25;;;4.35;;
11911;SDS011;6016;41.928;25.556;2023-04-26T14:43:10;5.75;;;4.25;;
11911;SDS011;6016;41.928;25.556;2023-04-26T14:45:37;6.15;;;3.80;;
11911;SDS011;6016;41.928;25.556;2023-04-26T14:48:04;6.35;;;3.78;;
11911;SDS011;6016;41.928;25.556;2023-04-26T14:50:31;5.53;;;3.30;;
11911;SDS011;6016;41.928;25.556;2023-04-26T14:52:58;6.05;;;3.53;;
11911;SDS011;6016;41.928;25.556;2023-04-26T14:55:26;7.03;;;3.58;;
11911;SDS011;6016;41.928;25.556;2023-04-26T14:57:53;5.03;;;3.10;;
11911;SDS011;6016;41.928;25.556;2023-04-26T15:00:20;4.55;;;2.97;;
11911;SDS011;6016;41.928;25.556;2023-04-26T15:02:49;7.63;;;3.85;;
11911;SDS011;6016;41.928;25.556;2023-04-26T15:05:16;5.13;;;3.20;;
11911;SDS011;6016;41.928;25.556;2023-04-26T15:07:43;5.57;;;3.08;;
11911;SDS011;6016;41.928;25.556;2023-04-26T15:10:13;7.10;;;3.25;;